sensor_id;sensor_type;location;lat;lon;timestamp;temperature;humidity
13256;DHT22;37913;48.370;10.930;2023-10-13T00:01:47;18.30;1.00
13256;DHT22;37913;48.370;10.930;2023-10-13T00:04:17;18.30;1.00
13256;DHT22;37913;48.370;10.930;2023-10-13T00:06:50;18.40;1.00
13256;DHT22;37913;48.370;10.930;2023-10-13T00:09:18;18.30;1.00
13256;DHT22;37913;48.370;10.930;2023-10-13T00:11:50;18.20;1.00
13256;DHT22;37913;48.370;10.930;2023-10-13T00:14:19;18.30;1.00
13256;DHT22;37913;48.370;10.930;2023-10-13T00:16:47;18.30;1.00
13256;DHT22;37913;48.370;10.930;2023-10-13T00:19:29;18.40;1.00
13256;DHT22;37913;48.370;10.930;2023-10-13T00:22:05;18.40;1.00
13256;DHT22;37913;48.370;10.930;2023-10-13T00:24:36;18.30;1.00
13256;DHT22;37913;48.370;10.930;2023-10-13T00:27:09;18.20;1.00
13256;DHT22;37913;48.370;10.930;2023-10-13T00:29:51;18.30;1.00
13256;DHT22;37913;48.370;10.930;2023-10-13T00:32:38;18.40;1.00
13256;DHT22;37913;48.370;10.930;2023-10-13T00:35:09;18.30;1.00
13256;DHT22;37913;48.370;10.930;2023-10-13T00:37:37;18.20;1.00
13256;DHT22;37913;48.370;10.930;2023-10-13T00:40:11;18.20;1.00
13256;DHT22;37913;48.370;10.930;2023-10-13T00:43:03;18.10;1.00
13256;DHT22;37913;48.370;10.930;2023-10-13T00:45:54;18.30;1.00
13256;DHT22;37913;48.370;10.930;2023-10-13T00:48:22;18.30;1.00
13256;DHT22;37913;48.370;10.930;2023-10-13T00:50:56;18.20;1.00
13256;DHT22;37913;48.370;10.930;2023-10-13T00:53:25;18.10;1.00
13256;DHT22;37913;48.370;10.930;2023-10-13T00:55:52;18.10;1.00
13256;DHT22;37913;48.370;10.930;2023-10-13T00:58:21;18.00;1.00
13256;DHT22;37913;48.370;10.930;2023-10-13T01:00:49;18.00;1.00
13256;DHT22;37913;48.370;10.930;2023-10-13T01:03:23;18.00;1.00
13256;DHT22;37913;48.370;10.930;2023-10-13T01:05:53;17.90;1.00
13256;DHT22;37913;48.370;10.930;2023-10-13T01:08:32;18.00;1.00
13256;DHT22;37913;48.370;10.930;2023-10-13T01:11:00;18.00;1.00
13256;DHT22;37913;48.370;10.930;2023-10-13T01:13:27;18.00;1.00
13256;DHT22;37913;48.370;10.930;2023-10-13T01:15:53;18.00;1.00
13256;DHT22;37913;48.370;10.930;2023-10-13T01:18:20;18.00;1.00
13256;DHT22;37913;48.370;10.930;2023-10-13T01:20:47;18.10;1.00
13256;DHT22;37913;48.370;10.930;2023-10-13T01:23:19;17.90;1.00
13256;DHT22;37913;48.370;10.930;2023-10-13T01:25:49;17.90;1.00
13256;DHT22;37913;48.370;10.930;2023-10-13T01:28:19;17.80;1.00
13256;DHT22;37913;48.370;10.930;2023-10-13T01:30:47;17.60;1.00
13256;DHT22;37913;48.370;10.930;2023-10-13T01:33:16;17.60;1.00
13256;DHT22;37913;48.370;10.930;2023-10-13T01:35:44;17.50;1.00
13256;DHT22;37913;48.370;10.930;2023-10-13T01:38:14;17.50;1.00
13256;DHT22;37913;48.370;10.930;2023-10-13T01:40:42;17.40;1.00
13256;DHT22;37913;48.370;10.930;2023-10-13T01:43:09;17.30;1.00
13256;DHT22;37913;48.370;10.930;2023-10-13T01:45:37;17.20;1.00
13256;DHT22;37913;48.370;10.930;2023-10-13T01:48:16;17.10;1.00
13256;DHT22;37913;48.370;10.930;2023-10-13T01:50:47;16.90;1.00
13256;DHT22;37913;48.370;10.930;2023-10-13T01:59:45;16.50;1.00
13256;DHT22;37913;48.370;10.930;2023-10-13T02:02:13;16.40;1.00
13256;DHT22;37913;48.370;10.930;2023-10-13T02:04:41;16.40;1.00
13256;DHT22;37913;48.370;10.930;2023-10-13T02:07:14;16.30;1.00
13256;DHT22;37913;48.370;10.930;2023-10-13T02:09:41;16.40;1.00
13256;DHT22;37913;48.370;10.930;2023-10-13T02:12:08;16.50;1.00
13256;DHT22;37913;48.370;10.930;2023-10-13T02:14:37;16.30;1.00
13256;DHT22;37913;48.370;10.930;2023-10-13T02:17:05;16.30;1.00
13256;DHT22;37913;48.370;10.930;2023-10-13T02:19:38;16.50;1.00
13256;DHT22;37913;48.370;10.930;2023-10-13T02:22:05;16.30;1.00
13256;DHT22;37913;48.370;10.930;2023-10-13T02:24:36;16.10;1.00
13256;DHT22;37913;48.370;10.930;2023-10-13T02:27:05;15.90;1.00
13256;DHT22;37913;48.370;10.930;2023-10-13T02:29:38;16.10;1.00
13256;DHT22;37913;48.370;10.930;2023-10-13T02:32:07;15.80;1.00
13256;DHT22;37913;48.370;10.930;2023-10-13T02:34:44;15.50;4.20
13256;DHT22;37913;48.370;10.930;2023-10-13T02:37:11;15.30;53.30
13256;DHT22;37913;48.370;10.930;2023-10-13T02:39:37;15.10;99.90
13256;DHT22;37913;48.370;10.930;2023-10-13T02:42:06;15.00;99.90
13256;DHT22;37913;48.370;10.930;2023-10-13T02:44:32;15.00;99.90
13256;DHT22;37913;48.370;10.930;2023-10-13T02:46:59;14.80;99.90
13256;DHT22;37913;48.370;10.930;2023-10-13T02:49:27;14.70;99.90
13256;DHT22;37913;48.370;10.930;2023-10-13T02:51:56;14.60;99.90
13256;DHT22;37913;48.370;10.930;2023-10-13T02:54:25;14.40;99.90
13256;DHT22;37913;48.370;10.930;2023-10-13T02:56:56;14.40;99.90
13256;DHT22;37913;48.370;10.930;2023-10-13T02:59:22;14.50;99.90
13256;DHT22;37913;48.370;10.930;2023-10-13T03:02:00;14.50;99.90
13256;DHT22;37913;48.370;10.930;2023-10-13T03:04:27;14.40;99.90
13256;DHT22;37913;48.370;10.930;2023-10-13T03:06:54;14.30;99.90
13256;DHT22;37913;48.370;10.930;2023-10-13T03:09:20;14.20;99.90
13256;DHT22;37913;48.370;10.930;2023-10-13T03:11:48;14.10;99.90
13256;DHT22;37913;48.370;10.930;2023-10-13T03:14:14;14.00;99.90
13256;DHT22;37913;48.370;10.930;2023-10-13T03:16:50;14.00;1.00
13256;DHT22;37913;48.370;10.930;2023-10-13T03:19:16;14.00;99.90
13256;DHT22;37913;48.370;10.930;2023-10-13T03:21:46;14.10;99.90
13256;DHT22;37913;48.370;10.930;2023-10-13T03:24:20;14.30;99.90
13256;DHT22;37913;48.370;10.930;2023-10-13T03:26:48;14.40;99.90
13256;DHT22;37913;48.370;10.930;2023-10-13T03:29:18;14.40;99.90
13256;DHT22;37913;48.370;10.930;2023-10-13T03:31:47;14.20;99.90
13256;DHT22;37913;48.370;10.930;2023-10-13T03:34:31;14.40;99.90
13256;DHT22;37913;48.370;10.930;2023-10-13T03:37:02;14.20;99.90
13256;DHT22;37913;48.370;10.930;2023-10-13T03:39:37;14.40;99.90
13256;DHT22;37913;48.370;10.930;2023-10-13T03:42:04;14.40;99.90
13256;DHT22;37913;48.370;10.930;2023-10-13T03:44:36;14.30;99.90
13256;DHT22;37913;48.370;10.930;2023-10-13T03:47:04;14.40;99.90
13256;DHT22;37913;48.370;10.930;2023-10-13T03:49:44;14.40;99.90
13256;DHT22;37913;48.370;10.930;2023-10-13T03:52:12;14.60;99.90
13256;DHT22;37913;48.370;10.930;2023-10-13T03:54:39;14.40;99.90
13256;DHT22;37913;48.370;10.930;2023-10-13T03:57:06;14.40;99.90
13256;DHT22;37913;48.370;10.930;2023-10-13T03:59:37;14.50;95.30
13256;DHT22;37913;48.370;10.930;2023-10-13T04:02:05;14.50;62.50
13256;DHT22;37913;48.370;10.930;2023-10-13T04:04:37;14.60;77.80
13256;DHT22;37913;48.370;10.930;2023-10-13T04:07:15;14.60;47.20
13256;DHT22;37913;48.370;10.930;2023-10-13T04:09:59;14.60;31.30
13256;DHT22;37913;48.370;10.930;2023-10-13T04:12:43;14.40;74.50
13256;DHT22;37913;48.370;10.930;2023-10-13T04:15:27;14.40;40.00
13256;DHT22;37913;48.370;10.930;2023-10-13T04:18:03;14.40;23.90
13256;DHT22;37913;48.370;10.930;2023-10-13T04:20:40;14.50;24.30
13256;DHT22;37913;48.370;10.930;2023-10-13T04:23:13;14.60;12.90
13256;DHT22;37913;48.370;10.930;2023-10-13T04:25:51;14.60;8.10
13256;DHT22;37913;48.370;10.930;2023-10-13T04:28:47;14.60;1.00
13256;DHT22;37913;48.370;10.930;2023-10-13T04:31:21;14.60;1.00
13256;DHT22;37913;48.370;10.930;2023-10-13T04:34:10;14.50;1.00
13256;DHT22;37913;48.370;10.930;2023-10-13T04:36:45;14.30;13.90
13256;DHT22;37913;48.370;10.930;2023-10-13T04:39:13;14.40;4.40
13256;DHT22;37913;48.370;10.930;2023-10-13T04:41:54;14.30;4.50
13256;DHT22;37913;48.370;10.930;2023-10-13T04:44:25;14.30;6.20
13256;DHT22;37913;48.370;10.930;2023-10-13T04:47:09;14.20;8.10
13256;DHT22;37913;48.370;10.930;2023-10-13T04:49:44;14.20;4.30
13256;DHT22;37913;48.370;10.930;2023-10-13T04:52:18;14.20;2.30
13256;DHT22;37913;48.370;10.930;2023-10-13T04:55:05;14.20;1.00
13256;DHT22;37913;48.370;10.930;2023-10-13T04:57:59;14.20;1.00
13256;DHT22;37913;48.370;10.930;2023-10-13T05:00:36;14.10;1.00
13256;DHT22;37913;48.370;10.930;2023-10-13T05:03:42;14.10;1.00
13256;DHT22;37913;48.370;10.930;2023-10-13T05:06:47;14.00;3.80
13256;DHT22;37913;48.370;10.930;2023-10-13T05:09:31;14.00;4.80
13256;DHT22;37913;48.370;10.930;2023-10-13T05:12:16;13.90;8.30
13256;DHT22;37913;48.370;10.930;2023-10-13T05:15:01;13.90;8.60
13256;DHT22;37913;48.370;10.930;2023-10-13T05:17:45;13.90;11.90
13256;DHT22;37913;48.370;10.930;2023-10-13T05:20:29;13.80;16.70
13256;DHT22;37913;48.370;10.930;2023-10-13T05:23:13;13.80;20.40
13256;DHT22;37913;48.370;10.930;2023-10-13T05:26:01;13.70;17.90
13256;DHT22;37913;48.370;10.930;2023-10-13T05:28:47;13.70;13.20
13256;DHT22;37913;48.370;10.930;2023-10-13T05:31:31;13.70;13.10
13256;DHT22;37913;48.370;10.930;2023-10-13T05:34:15;13.70;16.20
13256;DHT22;37913;48.370;10.930;2023-10-13T05:37:00;13.70;13.00
13256;DHT22;37913;48.370;10.930;2023-10-13T05:39:44;13.80;16.60
13256;DHT22;37913;48.370;10.930;2023-10-13T05:42:25;13.80;16.20
13256;DHT22;37913;48.370;10.930;2023-10-13T05:45:10;13.90;10.40
13256;DHT22;37913;48.370;10.930;2023-10-13T05:48:02;13.80;9.60
13256;DHT22;37913;48.370;10.930;2023-10-13T05:50:37;13.80;7.10
13256;DHT22;37913;48.370;10.930;2023-10-13T05:53:20;13.80;14.70
13256;DHT22;37913;48.370;10.930;2023-10-13T05:56:16;13.80;12.00
13256;DHT22;37913;48.370;10.930;2023-10-13T05:59:00;13.80;7.70
13256;DHT22;37913;48.370;10.930;2023-10-13T06:01:46;14.00;1.00
13256;DHT22;37913;48.370;10.930;2023-10-13T06:04:30;14.10;1.00
13256;DHT22;37913;48.370;10.930;2023-10-13T06:07:15;14.20;1.00
13256;DHT22;37913;48.370;10.930;2023-10-13T06:10:07;14.20;1.00
13256;DHT22;37913;48.370;10.930;2023-10-13T06:12:52;14.30;1.00
13256;DHT22;37913;48.370;10.930;2023-10-13T06:15:36;14.30;1.00
13256;DHT22;37913;48.370;10.930;2023-10-13T06:18:22;14.40;1.00
13256;DHT22;37913;48.370;10.930;2023-10-13T06:21:06;14.50;1.00
13256;DHT22;37913;48.370;10.930;2023-10-13T06:23:50;14.50;1.00
13256;DHT22;37913;48.370;10.930;2023-10-13T06:26:35;14.70;1.00
13256;DHT22;37913;48.370;10.930;2023-10-13T06:29:19;14.80;1.00
13256;DHT22;37913;48.370;10.930;2023-10-13T06:31:47;15.00;1.00
13256;DHT22;37913;48.370;10.930;2023-10-13T06:34:16;15.10;1.00
13256;DHT22;37913;48.370;10.930;2023-10-13T06:36:47;15.30;1.00
13256;DHT22;37913;48.370;10.930;2023-10-13T06:39:14;15.30;1.00
13256;DHT22;37913;48.370;10.930;2023-10-13T06:42:01;15.40;1.00
13256;DHT22;37913;48.370;10.930;2023-10-13T06:44:30;15.50;1.00
13256;DHT22;37913;48.370;10.930;2023-10-13T06:46:58;15.60;1.00
13256;DHT22;37913;48.370;10.930;2023-10-13T06:49:27;15.60;1.00
13256;DHT22;37913;48.370;10.930;2023-10-13T06:51:54;15.60;1.00
13256;DHT22;37913;48.370;10.930;2023-10-13T06:54:26;15.70;1.00
13256;DHT22;37913;48.370;10.930;2023-10-13T06:56:54;15.90;1.00
13256;DHT22;37913;48.370;10.930;2023-10-13T06:59:21;16.00;1.00
13256;DHT22;37913;48.370;10.930;2023-10-13T07:01:52;16.10;1.00
13256;DHT22;37913;48.370;10.930;2023-10-13T07:04:19;16.10;1.00
13256;DHT22;37913;48.370;10.930;2023-10-13T07:06:48;17.50;1.00
13256;DHT22;37913;48.370;10.930;2023-10-13T07:09:16;16.60;1.00
13256;DHT22;37913;48.370;10.930;2023-10-13T07:11:58;16.80;1.00
13256;DHT22;37913;48.370;10.930;2023-10-13T07:14:29;17.00;1.00
13256;DHT22;37913;48.370;10.930;2023-10-13T07:17:02;17.30;1.00
13256;DHT22;37913;48.370;10.930;2023-10-13T07:19:30;17.30;1.00
13256;DHT22;37913;48.370;10.930;2023-10-13T07:22:01;17.20;1.00
13256;DHT22;37913;48.370;10.930;2023-10-13T07:24:45;17.30;1.00
13256;DHT22;37913;48.370;10.930;2023-10-13T07:27:14;17.10;1.00
13256;DHT22;37913;48.370;10.930;2023-10-13T07:29:49;17.20;1.00
13256;DHT22;37913;48.370;10.930;2023-10-13T07:32:22;17.20;1.00
13256;DHT22;37913;48.370;10.930;2023-10-13T07:34:52;17.40;1.00
13256;DHT22;37913;48.370;10.930;2023-10-13T07:37:22;17.60;1.00
13256;DHT22;37913;48.370;10.930;2023-10-13T07:39:53;17.80;1.00
13256;DHT22;37913;48.370;10.930;2023-10-13T07:42:23;18.20;1.00
13256;DHT22;37913;48.370;10.930;2023-10-13T07:44:56;18.10;1.00
13256;DHT22;37913;48.370;10.930;2023-10-13T07:47:24;18.20;1.00
13256;DHT22;37913;48.370;10.930;2023-10-13T07:49:53;18.50;1.00
13256;DHT22;37913;48.370;10.930;2023-10-13T07:52:23;19.00;1.00
13256;DHT22;37913;48.370;10.930;2023-10-13T07:55:01;19.20;1.00
13256;DHT22;37913;48.370;10.930;2023-10-13T07:57:37;19.20;1.00
13256;DHT22;37913;48.370;10.930;2023-10-13T08:00:19;20.10;1.00
13256;DHT22;37913;48.370;10.930;2023-10-13T08:03:04;20.60;1.00
13256;DHT22;37913;48.370;10.930;2023-10-13T08:05:52;20.30;1.00
13256;DHT22;37913;48.370;10.930;2023-10-13T08:08:25;20.80;1.00
13256;DHT22;37913;48.370;10.930;2023-10-13T08:11:00;21.30;1.00
13256;DHT22;37913;48.370;10.930;2023-10-13T08:13:34;21.70;1.00
13256;DHT22;37913;48.370;10.930;2023-10-13T08:16:02;21.90;1.00
13256;DHT22;37913;48.370;10.930;2023-10-13T08:18:33;22.00;1.00
13256;DHT22;37913;48.370;10.930;2023-10-13T08:21:01;22.50;1.00
13256;DHT22;37913;48.370;10.930;2023-10-13T08:23:31;23.00;1.00
13256;DHT22;37913;48.370;10.930;2023-10-13T08:26:22;23.10;1.00
13256;DHT22;37913;48.370;10.930;2023-10-13T08:29:12;24.30;1.00
13256;DHT22;37913;48.370;10.930;2023-10-13T08:31:56;23.00;1.00
13256;DHT22;37913;48.370;10.930;2023-10-13T08:34:39;22.40;1.00
13256;DHT22;37913;48.370;10.930;2023-10-13T08:37:28;22.50;1.00
13256;DHT22;37913;48.370;10.930;2023-10-13T08:39:57;22.70;1.00
13256;DHT22;37913;48.370;10.930;2023-10-13T08:42:41;23.40;1.00
13256;DHT22;37913;48.370;10.930;2023-10-13T08:45:41;23.60;1.00
13256;DHT22;37913;48.370;10.930;2023-10-13T08:48:24;22.10;1.00
13256;DHT22;37913;48.370;10.930;2023-10-13T08:50:58;22.20;1.00
13256;DHT22;37913;48.370;10.930;2023-10-13T08:53:32;22.40;1.00
13256;DHT22;37913;48.370;10.930;2023-10-13T08:56:01;23.80;1.00
13256;DHT22;37913;48.370;10.930;2023-10-13T08:58:33;23.80;1.00
13256;DHT22;37913;48.370;10.930;2023-10-13T09:01:17;24.20;1.00
13256;DHT22;37913;48.370;10.930;2023-10-13T09:03:58;26.00;1.00
13256;DHT22;37913;48.370;10.930;2023-10-13T09:06:47;25.80;1.00
13256;DHT22;37913;48.370;10.930;2023-10-13T09:09:26;27.40;1.00
13256;DHT22;37913;48.370;10.930;2023-10-13T09:14:29;31.20;1.00
13256;DHT22;37913;48.370;10.930;2023-10-13T09:17:05;32.80;1.00
13256;DHT22;37913;48.370;10.930;2023-10-13T09:19:50;32.90;1.00
13256;DHT22;37913;48.370;10.930;2023-10-13T09:22:25;33.40;1.00
13256;DHT22;37913;48.370;10.930;2023-10-13T09:24:54;31.10;1.00
13256;DHT22;37913;48.370;10.930;2023-10-13T09:27:25;32.50;1.00
13256;DHT22;37913;48.370;10.930;2023-10-13T09:29:57;36.20;1.00
13256;DHT22;37913;48.370;10.930;2023-10-13T09:32:35;35.90;1.00
13256;DHT22;37913;48.370;10.930;2023-10-13T09:35:17;34.10;1.00
13256;DHT22;37913;48.370;10.930;2023-10-13T09:37:45;34.10;1.00
13256;DHT22;37913;48.370;10.930;2023-10-13T09:40:15;34.70;1.00
13256;DHT22;37913;48.370;10.930;2023-10-13T09:42:59;34.00;1.00
13256;DHT22;37913;48.370;10.930;2023-10-13T09:45:33;37.20;1.00
13256;DHT22;37913;48.370;10.930;2023-10-13T09:48:03;40.20;1.00
13256;DHT22;37913;48.370;10.930;2023-10-13T09:50:37;38.10;1.00
13256;DHT22;37913;48.370;10.930;2023-10-13T09:53:06;39.20;1.00
13256;DHT22;37913;48.370;10.930;2023-10-13T09:55:38;37.50;1.00
13256;DHT22;37913;48.370;10.930;2023-10-13T09:58:07;39.30;1.00
13256;DHT22;37913;48.370;10.930;2023-10-13T10:00:43;41.40;1.00
13256;DHT22;37913;48.370;10.930;2023-10-13T10:03:15;41.40;1.00
13256;DHT22;37913;48.370;10.930;2023-10-13T10:05:55;41.30;1.00
13256;DHT22;37913;48.370;10.930;2023-10-13T10:08:29;41.20;1.00
13256;DHT22;37913;48.370;10.930;2023-10-13T10:11:14;39.20;1.00
13256;DHT22;37913;48.370;10.930;2023-10-13T10:13:52;38.70;1.00
13256;DHT22;37913;48.370;10.930;2023-10-13T10:16:30;42.90;1.00
13256;DHT22;37913;48.370;10.930;2023-10-13T10:19:07;42.80;1.00
13256;DHT22;37913;48.370;10.930;2023-10-13T10:21:34;43.40;1.00
13256;DHT22;37913;48.370;10.930;2023-10-13T10:24:02;43.80;1.00
13256;DHT22;37913;48.370;10.930;2023-10-13T10:26:33;43.80;1.00
13256;DHT22;37913;48.370;10.930;2023-10-13T10:29:11;44.90;1.00
13256;DHT22;37913;48.370;10.930;2023-10-13T10:31:41;43.20;1.00
13256;DHT22;37913;48.370;10.930;2023-10-13T10:34:13;40.60;1.00
13256;DHT22;37913;48.370;10.930;2023-10-13T10:36:40;37.40;1.00
13256;DHT22;37913;48.370;10.930;2023-10-13T10:39:09;34.50;1.00
13256;DHT22;37913;48.370;10.930;2023-10-13T10:41:37;32.20;1.00
13256;DHT22;37913;48.370;10.930;2023-10-13T10:44:11;31.60;1.00
13256;DHT22;37913;48.370;10.930;2023-10-13T10:46:45;31.20;1.00
13256;DHT22;37913;48.370;10.930;2023-10-13T10:49:23;30.00;1.00
13256;DHT22;37913;48.370;10.930;2023-10-13T10:51:58;29.40;1.00
13256;DHT22;37913;48.370;10.930;2023-10-13T10:54:29;28.40;1.00
13256;DHT22;37913;48.370;10.930;2023-10-13T10:56:57;27.80;1.00
13256;DHT22;37913;48.370;10.930;2023-10-13T10:59:36;27.60;1.00
13256;DHT22;37913;48.370;10.930;2023-10-13T11:02:06;27.90;1.00
13256;DHT22;37913;48.370;10.930;2023-10-13T11:04:34;30.30;1.00
13256;DHT22;37913;48.370;10.930;2023-10-13T11:07:21;35.00;1.00
13256;DHT22;37913;48.370;10.930;2023-10-13T11:09:48;36.10;1.00
13256;DHT22;37913;48.370;10.930;2023-10-13T11:12:19;38.00;1.00
13256;DHT22;37913;48.370;10.930;2023-10-13T11:15:02;38.30;1.00
13256;DHT22;37913;48.370;10.930;2023-10-13T11:17:37;36.90;1.00
13256;DHT22;37913;48.370;10.930;2023-10-13T11:20:17;35.30;1.00
13256;DHT22;37913;48.370;10.930;2023-10-13T11:22:52;32.70;1.00
13256;DHT22;37913;48.370;10.930;2023-10-13T11:25:23;31.90;1.00
13256;DHT22;37913;48.370;10.930;2023-10-13T11:27:55;30.90;1.00
13256;DHT22;37913;48.370;10.930;2023-10-13T11:30:29;30.30;1.00
13256;DHT22;37913;48.370;10.930;2023-10-13T11:33:09;29.60;1.00
13256;DHT22;37913;48.370;10.930;2023-10-13T11:35:37;30.50;1.00
13256;DHT22;37913;48.370;10.930;2023-10-13T11:38:24;32.90;1.00
13256;DHT22;37913;48.370;10.930;2023-10-13T11:40:55;37.40;1.00
13256;DHT22;37913;48.370;10.930;2023-10-13T11:43:34;41.30;1.00
13256;DHT22;37913;48.370;10.930;2023-10-13T11:46:19;43.70;1.00
13256;DHT22;37913;48.370;10.930;2023-10-13T11:49:14;44.10;1.00
13256;DHT22;37913;48.370;10.930;2023-10-13T11:51:44;44.80;1.00
13256;DHT22;37913;48.370;10.930;2023-10-13T11:54:12;46.30;1.00
13256;DHT22;37913;48.370;10.930;2023-10-13T11:56:39;47.60;1.00
13256;DHT22;37913;48.370;10.930;2023-10-13T11:59:05;46.80;1.00
13256;DHT22;37913;48.370;10.930;2023-10-13T12:01:42;44.70;1.00
13256;DHT22;37913;48.370;10.930;2023-10-13T12:04:28;45.70;1.00
13256;DHT22;37913;48.370;10.930;2023-10-13T12:07:06;45.00;1.00
13256;DHT22;37913;48.370;10.930;2023-10-13T12:09:45;47.90;1.00
13256;DHT22;37913;48.370;10.930;2023-10-13T12:12:32;45.50;1.00
13256;DHT22;37913;48.370;10.930;2023-10-13T12:15:07;46.00;1.00
13256;DHT22;37913;48.370;10.930;2023-10-13T12:17:51;45.10;1.00
13256;DHT22;37913;48.370;10.930;2023-10-13T12:20:20;44.40;1.00
13256;DHT22;37913;48.370;10.930;2023-10-13T12:22:59;46.00;1.00
13256;DHT22;37913;48.370;10.930;2023-10-13T12:25:37;46.90;1.00
13256;DHT22;37913;48.370;10.930;2023-10-13T12:28:21;46.30;1.00
13256;DHT22;37913;48.370;10.930;2023-10-13T12:30:49;49.80;1.00
13256;DHT22;37913;48.370;10.930;2023-10-13T12:33:18;49.80;1.00
13256;DHT22;37913;48.370;10.930;2023-10-13T12:35:57;48.90;1.00
13256;DHT22;37913;48.370;10.930;2023-10-13T12:38:35;47.70;1.00
13256;DHT22;37913;48.370;10.930;2023-10-13T12:41:37;47.50;1.00
13256;DHT22;37913;48.370;10.930;2023-10-13T12:44:22;49.20;1.00
13256;DHT22;37913;48.370;10.930;2023-10-13T12:47:06;47.50;1.00
13256;DHT22;37913;48.370;10.930;2023-10-13T12:49:50;47.70;1.00
13256;DHT22;37913;48.370;10.930;2023-10-13T12:52:26;46.90;1.00
13256;DHT22;37913;48.370;10.930;2023-10-13T12:54:57;47.50;1.00
13256;DHT22;37913;48.370;10.930;2023-10-13T12:57:48;46.20;1.00
13256;DHT22;37913;48.370;10.930;2023-10-13T13:00:15;41.40;1.00
13256;DHT22;37913;48.370;10.930;2023-10-13T13:03:00;43.30;1.00
13256;DHT22;37913;48.370;10.930;2023-10-13T13:05:36;46.00;1.00
13256;DHT22;37913;48.370;10.930;2023-10-13T13:08:11;44.40;1.00
13256;DHT22;37913;48.370;10.930;2023-10-13T13:10:47;44.00;1.00
13256;DHT22;37913;48.370;10.930;2023-10-13T13:13:14;42.90;1.00
13256;DHT22;37913;48.370;10.930;2023-10-13T13:15:49;41.60;1.00
13256;DHT22;37913;48.370;10.930;2023-10-13T13:18:17;42.00;1.00
13256;DHT22;37913;48.370;10.930;2023-10-13T13:20:46;44.60;1.00
13256;DHT22;37913;48.370;10.930;2023-10-13T13:23:20;42.90;1.00
13256;DHT22;37913;48.370;10.930;2023-10-13T13:25:51;43.00;1.00
13256;DHT22;37913;48.370;10.930;2023-10-13T13:28:18;44.00;1.00
13256;DHT22;37913;48.370;10.930;2023-10-13T13:30:46;39.50;1.00
13256;DHT22;37913;48.370;10.930;2023-10-13T13:33:16;39.80;1.00
13256;DHT22;37913;48.370;10.930;2023-10-13T13:35:57;43.10;1.00
13256;DHT22;37913;48.370;10.930;2023-10-13T13:38:26;45.60;1.00
13256;DHT22;37913;48.370;10.930;2023-10-13T13:40:57;42.70;1.00
13256;DHT22;37913;48.370;10.930;2023-10-13T13:43:28;42.40;1.00
13256;DHT22;37913;48.370;10.930;2023-10-13T13:46:03;44.60;1.00
13256;DHT22;37913;48.370;10.930;2023-10-13T13:48:39;43.70;1.00
13256;DHT22;37913;48.370;10.930;2023-10-13T13:51:06;42.00;1.00
13256;DHT22;37913;48.370;10.930;2023-10-13T13:53:41;40.60;1.00
13256;DHT22;37913;48.370;10.930;2023-10-13T13:56:10;40.20;1.00
13256;DHT22;37913;48.370;10.930;2023-10-13T13:58:41;43.20;1.00
13256;DHT22;37913;48.370;10.930;2023-10-13T14:01:09;43.30;1.00
13256;DHT22;37913;48.370;10.930;2023-10-13T14:03:40;44.00;1.00
13256;DHT22;37913;48.370;10.930;2023-10-13T14:06:11;43.60;1.00
13256;DHT22;37913;48.370;10.930;2023-10-13T14:08:45;41.90;1.00
13256;DHT22;37913;48.370;10.930;2023-10-13T14:11:16;42.90;1.00
13256;DHT22;37913;48.370;10.930;2023-10-13T14:14:10;43.00;1.00
13256;DHT22;37913;48.370;10.930;2023-10-13T14:16:40;42.30;1.00
13256;DHT22;37913;48.370;10.930;2023-10-13T14:19:11;41.60;1.00
13256;DHT22;37913;48.370;10.930;2023-10-13T14:21:37;41.70;1.00
13256;DHT22;37913;48.370;10.930;2023-10-13T14:24:06;40.10;1.00
13256;DHT22;37913;48.370;10.930;2023-10-13T14:26:40;38.70;1.00
13256;DHT22;37913;48.370;10.930;2023-10-13T14:29:10;36.20;1.00
13256;DHT22;37913;48.370;10.930;2023-10-13T14:31:40;34.90;1.00
13256;DHT22;37913;48.370;10.930;2023-10-13T14:34:07;36.60;1.00
13256;DHT22;37913;48.370;10.930;2023-10-13T14:36:35;37.10;1.00
13256;DHT22;37913;48.370;10.930;2023-10-13T14:39:04;38.00;1.00
13256;DHT22;37913;48.370;10.930;2023-10-13T14:41:45;35.00;1.00
13256;DHT22;37913;48.370;10.930;2023-10-13T14:44:13;34.50;1.00
13256;DHT22;37913;48.370;10.930;2023-10-13T14:46:40;36.30;1.00
13256;DHT22;37913;48.370;10.930;2023-10-13T14:49:07;36.20;1.00
13256;DHT22;37913;48.370;10.930;2023-10-13T14:51:35;35.20;1.00
13256;DHT22;37913;48.370;10.930;2023-10-13T14:54:05;35.10;1.00
13256;DHT22;37913;48.370;10.930;2023-10-13T14:56:32;34.70;1.00
13256;DHT22;37913;48.370;10.930;2023-10-13T14:59:00;33.50;1.00
13256;DHT22;37913;48.370;10.930;2023-10-13T15:01:30;31.80;1.00
13256;DHT22;37913;48.370;10.930;2023-10-13T15:03:57;30.40;1.00
13256;DHT22;37913;48.370;10.930;2023-10-13T15:06:25;29.60;1.00
13256;DHT22;37913;48.370;10.930;2023-10-13T15:08:55;29.70;1.00
13256;DHT22;37913;48.370;10.930;2023-10-13T15:11:22;28.60;1.00
13256;DHT22;37913;48.370;10.930;2023-10-13T15:13:52;28.10;1.00
13256;DHT22;37913;48.370;10.930;2023-10-13T15:16:22;27.50;1.00
13256;DHT22;37913;48.370;10.930;2023-10-13T15:18:50;27.20;1.00
13256;DHT22;37913;48.370;10.930;2023-10-13T15:21:21;27.00;1.00
13256;DHT22;37913;48.370;10.930;2023-10-13T15:23:48;26.60;1.00
13256;DHT22;37913;48.370;10.930;2023-10-13T15:26:17;26.30;1.00
13256;DHT22;37913;48.370;10.930;2023-10-13T15:28:46;26.10;1.00
13256;DHT22;37913;48.370;10.930;2023-10-13T15:31:15;25.80;1.00
13256;DHT22;37913;48.370;10.930;2023-10-13T15:34:05;25.70;1.00
13256;DHT22;37913;48.370;10.930;2023-10-13T15:36:38;25.50;1.00
13256;DHT22;37913;48.370;10.930;2023-10-13T15:39:05;25.30;1.00
13256;DHT22;37913;48.370;10.930;2023-10-13T15:41:34;25.20;1.00
13256;DHT22;37913;48.370;10.930;2023-10-13T15:44:03;25.00;1.00
13256;DHT22;37913;48.370;10.930;2023-10-13T15:46:32;25.00;1.00
13256;DHT22;37913;48.370;10.930;2023-10-13T15:49:01;24.80;1.00
13256;DHT22;37913;48.370;10.930;2023-10-13T15:51:32;24.60;1.00
13256;DHT22;37913;48.370;10.930;2023-10-13T15:53:59;24.50;1.00
13256;DHT22;37913;48.370;10.930;2023-10-13T15:56:26;24.40;1.00
13256;DHT22;37913;48.370;10.930;2023-10-13T15:58:53;24.30;1.00
13256;DHT22;37913;48.370;10.930;2023-10-13T16:01:21;24.10;1.00
13256;DHT22;37913;48.370;10.930;2023-10-13T16:03:50;24.00;1.00
13256;DHT22;37913;48.370;10.930;2023-10-13T16:06:16;24.00;1.00
13256;DHT22;37913;48.370;10.930;2023-10-13T16:08:45;23.80;1.00
13256;DHT22;37913;48.370;10.930;2023-10-13T16:11:13;23.70;1.00
13256;DHT22;37913;48.370;10.930;2023-10-13T16:13:43;23.60;1.00
13256;DHT22;37913;48.370;10.930;2023-10-13T16:16:14;23.40;1.00
13256;DHT22;37913;48.370;10.930;2023-10-13T16:18:42;23.20;1.00
13256;DHT22;37913;48.370;10.930;2023-10-13T16:21:10;23.10;1.00